createdAt,value
2017-02-02T00:00:56.922Z,0.9
2017-02-02T00:02:01.848Z,1
2017-02-02T00:03:07.208Z,0.9
2017-02-02T00:04:12.555Z,0.9
2017-02-02T00:05:18.574Z,0.9
2017-02-02T00:06:24.593Z,0.9
2017-02-02T00:07:30.618Z,0.9
2017-02-02T00:08:35.965Z,0.9
2017-02-02T00:09:41.995Z,0.9
2017-02-02T00:10:48.019Z,1
2017-02-02T00:11:51.616Z,0.9
2017-02-02T00:12:57.632Z,0.9
2017-02-02T00:14:01.892Z,0.9
2017-02-02T00:15:07.907Z,0.9
2017-02-02T00:16:13.927Z,0.9
2017-02-02T00:17:19.944Z,0.9
2017-02-02T00:18:25.975Z,0.9
2017-02-02T00:19:31.998Z,0.9
2017-02-02T00:20:38.018Z,0.9
2017-02-02T00:21:44.035Z,0.9
2017-02-02T00:22:49.388Z,0.8
2017-02-02T00:23:55.408Z,0.8
2017-02-02T00:25:01.424Z,0.8
2017-02-02T00:26:07.440Z,0.9
2017-02-02T00:27:13.465Z,0.9
2017-02-02T00:28:19.486Z,0.9
2017-02-02T00:29:24.408Z,0.9
2017-02-02T00:30:30.422Z,0.9
2017-02-02T00:31:36.445Z,0.9
2017-02-02T00:32:42.467Z,0.9
2017-02-02T00:33:48.486Z,0.8
2017-02-02T00:34:54.504Z,0.9
2017-02-02T00:36:00.527Z,0.8
2017-02-02T00:37:06.545Z,0.9
2017-02-02T00:38:12.564Z,0.9
2017-02-02T00:39:18.580Z,0.9
2017-02-02T00:40:24.599Z,0.9
2017-02-02T00:41:30.617Z,0.9
2017-02-02T00:42:36.640Z,0.8
2017-02-02T00:43:42.662Z,0.8
2017-02-02T00:44:48.689Z,0.8
2017-02-02T00:45:54.713Z,0.8
2017-02-02T00:47:00.737Z,0.8
2017-02-02T00:48:06.756Z,0.8
2017-02-02T00:49:12.778Z,0.8
2017-02-02T00:50:18.796Z,0.9
2017-02-02T00:51:23.714Z,0.8
2017-02-02T00:52:29.739Z,0.8
2017-02-02T00:53:35.762Z,0.8
2017-02-02T00:54:41.781Z,0.8
2017-02-02T00:55:47.804Z,0.8
2017-02-02T00:56:53.826Z,0.8
2017-02-02T00:57:59.846Z,0.8
2017-02-02T00:59:05.866Z,0.8
2017-02-02T01:00:11.226Z,0.8
2017-02-02T01:01:17.247Z,0.9
2017-02-02T01:02:23.274Z,0.9
2017-02-02T01:03:29.290Z,0.9
2017-02-02T01:04:35.306Z,0.8
2017-02-02T01:05:40.230Z,0.8
2017-02-02T01:06:45.590Z,0.8
2017-02-02T01:07:51.608Z,0.9
2017-02-02T01:08:57.628Z,0.8
2017-02-02T01:10:02.988Z,0.9
2017-02-02T01:11:09.005Z,0.9
2017-02-02T01:12:15.023Z,0.9
2017-02-02T01:13:21.052Z,0.9
2017-02-02T01:14:25.971Z,0.8
2017-02-02T01:15:31.327Z,0.8
2017-02-02T01:16:37.337Z,0.9
2017-02-02T01:17:42.266Z,1
2017-02-02T01:18:48.284Z,0.9
2017-02-02T01:19:54.300Z,0.9
2017-02-02T01:21:00.321Z,0.9
2017-02-02T01:22:06.347Z,0.8
2017-02-02T01:23:11.267Z,0.8
2017-02-02T01:24:17.283Z,0.8
2017-02-02T01:25:23.311Z,0.8
2017-02-02T01:26:29.324Z,0.8
2017-02-02T01:27:35.345Z,0.9
2017-02-02T01:28:41.364Z,0.9
2017-02-02T01:29:47.388Z,0.8
2017-02-02T01:30:53.400Z,0.8
2017-02-02T01:31:59.423Z,0.8
2017-02-02T01:33:04.785Z,0.8
2017-02-02T01:34:10.812Z,0.8
2017-02-02T01:35:16.172Z,0.8
2017-02-02T01:36:22.182Z,0.9
2017-02-02T01:37:27.547Z,0.8
2017-02-02T01:38:32.907Z,0.8
2017-02-02T01:39:38.927Z,0.8
2017-02-02T01:40:43.844Z,0.8
2017-02-02T01:41:49.869Z,0.8
2017-02-02T01:42:55.889Z,0.8
2017-02-02T01:44:01.904Z,0.8
2017-02-02T01:45:07.920Z,0.8
2017-02-02T01:46:13.946Z,0.8
2017-02-02T01:47:19.964Z,0.9
2017-02-02T01:48:25.984Z,0.9
2017-02-02T01:49:31.996Z,0.7
2017-02-02T01:50:38.015Z,0.7
2017-02-02T01:51:44.033Z,0.7
2017-02-02T01:52:50.054Z,0.8
2017-02-02T01:53:54.320Z,0.8
2017-02-02T01:55:00.334Z,0.8
2017-02-02T01:56:05.691Z,0.8
2017-02-02T01:57:11.711Z,0.8
2017-02-02T01:58:17.733Z,0.7
2017-02-02T01:59:22.659Z,0.8
2017-02-02T02:00:28.674Z,0.8
2017-02-02T02:01:34.693Z,0.9
2017-02-02T02:02:40.709Z,0.9
2017-02-02T02:03:46.732Z,0.9
2017-02-02T02:04:52.754Z,0.9
2017-02-02T02:05:58.769Z,0.9
2017-02-02T02:07:04.791Z,0.9
2017-02-02T02:08:10.816Z,0.8
2017-02-02T02:09:16.839Z,0.8
2017-02-02T02:10:22.854Z,0.9
2017-02-02T02:11:28.877Z,0.9
2017-02-02T02:12:34.900Z,0.8
2017-02-02T02:13:40.925Z,0.7
2017-02-02T02:14:46.948Z,0.7
2017-02-02T02:15:52.308Z,0.6
2017-02-02T02:16:58.330Z,0.7
2017-02-02T02:18:04.354Z,0.7
2017-02-02T02:19:10.379Z,0.7
2017-02-02T02:20:15.740Z,0.7
2017-02-02T02:21:21.764Z,0.8
2017-02-02T02:22:27.787Z,0.8
2017-02-02T02:23:33.135Z,0.8
2017-02-02T02:24:39.161Z,0.8
2017-02-02T02:25:45.181Z,0.8
2017-02-02T02:26:51.205Z,0.7
2017-02-02T02:27:57.226Z,0.6
2017-02-02T02:29:02.152Z,0.6
2017-02-02T02:30:08.171Z,0.6
2017-02-02T02:31:14.190Z,0.7
2017-02-02T02:32:20.203Z,0.7
2017-02-02T02:33:25.562Z,0.6
2017-02-02T02:34:31.586Z,0.6
2017-02-02T02:35:36.934Z,0.6
2017-02-02T02:36:42.963Z,0.6
2017-02-02T02:37:48.985Z,0.7
2017-02-02T02:38:55.005Z,0.5
2017-02-02T02:40:01.018Z,0.6
2017-02-02T02:41:06.381Z,0.6
2017-02-02T02:42:11.304Z,0.5
2017-02-02T02:43:17.323Z,0.6
2017-02-02T02:44:23.335Z,0.6
2017-02-02T02:45:29.365Z,0.6
2017-02-02T02:46:35.387Z,0.6
2017-02-02T02:47:40.308Z,0.6
2017-02-02T02:48:46.331Z,0.6
2017-02-02T02:49:52.358Z,0.6
2017-02-02T02:50:56.616Z,0.6
2017-02-02T02:52:02.633Z,0.6
2017-02-02T02:53:08.655Z,0.5
2017-02-02T02:54:14.674Z,0.5
2017-02-02T02:55:20.697Z,0.5
2017-02-02T02:56:26.718Z,0.6
2017-02-02T02:57:32.746Z,0.6
2017-02-02T02:58:38.767Z,0.7
2017-02-02T02:59:44.785Z,0.7
2017-02-02T03:00:50.800Z,0.7
2017-02-02T03:01:56.819Z,0.6
2017-02-02T03:03:02.842Z,0.6
2017-02-02T03:04:08.864Z,0.6
2017-02-02T03:05:14.219Z,0.5
2017-02-02T03:06:19.147Z,0.5
2017-02-02T03:07:25.169Z,0.6
2017-02-02T03:08:31.191Z,0.6
2017-02-02T03:09:37.202Z,0.6
2017-02-02T03:10:43.217Z,0.7
2017-02-02T03:11:49.238Z,0.7
2017-02-02T03:12:54.589Z,0.7
2017-02-02T03:14:00.611Z,0.6
2017-02-02T03:15:05.969Z,0.6
2017-02-02T03:16:11.995Z,0.6
2017-02-02T03:17:18.014Z,0.6
2017-02-02T03:18:24.024Z,0.6
2017-02-02T03:19:30.042Z,0.6
2017-02-02T03:20:36.067Z,0.6
2017-02-02T03:21:42.082Z,0.6
2017-02-02T03:22:48.106Z,0.6
2017-02-02T03:23:53.466Z,0.6
2017-02-02T03:24:59.486Z,0.6
2017-02-02T03:26:05.502Z,0.6
2017-02-02T03:27:11.524Z,0.6
2017-02-02T03:28:17.537Z,0.6
2017-02-02T03:29:22.458Z,0.7
2017-02-02T03:30:28.475Z,0.5
2017-02-02T03:31:34.498Z,0.5
2017-02-02T03:32:40.523Z,0.5
2017-02-02T03:33:45.440Z,0.6
2017-02-02T03:34:51.456Z,0.6
2017-02-02T03:35:57.476Z,0.7
2017-02-02T03:37:02.831Z,0.6
2017-02-02T03:38:08.853Z,0.6
2017-02-02T03:39:14.873Z,0.7
2017-02-02T03:40:20.235Z,0.7
2017-02-02T03:41:26.255Z,0.6
2017-02-02T03:42:32.276Z,0.5
2017-02-02T03:43:38.293Z,0.5
2017-02-02T03:44:44.319Z,0.5
2017-02-02T03:45:50.334Z,0.5
2017-02-02T03:46:55.690Z,0.5
2017-02-02T03:48:01.704Z,0.4
2017-02-02T03:49:07.731Z,0.4
2017-02-02T03:50:13.088Z,0.4
2017-02-02T03:51:19.105Z,0.4
2017-02-02T03:52:24.035Z,0.5
2017-02-02T03:53:30.056Z,0.6
2017-02-02T03:54:36.076Z,0.6
2017-02-02T03:55:40.989Z,0.6
2017-02-02T03:56:47.012Z,0.6
2017-02-02T03:57:53.030Z,0.6
2017-02-02T03:58:58.385Z,0.6
2017-02-02T04:00:03.734Z,0.6
2017-02-02T04:01:09.759Z,0.6
2017-02-02T04:02:15.777Z,0.5
2017-02-02T04:03:21.800Z,0.5
2017-02-02T04:04:27.826Z,0.6
2017-02-02T04:05:33.843Z,0.6
2017-02-02T04:06:39.869Z,0.5
2017-02-02T04:07:45.885Z,0.5
2017-02-02T04:08:51.909Z,0.5
2017-02-02T04:09:56.602Z,0.4
2017-02-02T04:11:02.622Z,0.5
2017-02-02T04:12:08.638Z,0.5
2017-02-02T04:13:12.900Z,0.5
2017-02-02T04:14:17.815Z,0.5
2017-02-02T04:15:23.834Z,0.5
2017-02-02T04:16:28.528Z,0.6
2017-02-02T04:17:34.558Z,0.5
2017-02-02T04:18:40.577Z,0.5
2017-02-02T04:19:45.934Z,0.6
2017-02-02T04:20:51.950Z,0.6
2017-02-02T04:21:57.973Z,0.6
2017-02-02T04:23:03.335Z,0.6
2017-02-02T04:24:08.685Z,0.6
2017-02-02T04:25:14.707Z,0.5
2017-02-02T04:26:20.068Z,0.6
2017-02-02T04:27:26.090Z,0.5
2017-02-02T04:28:32.115Z,0.5
2017-02-02T04:29:38.139Z,0.5
2017-02-02T04:30:44.154Z,0.6
2017-02-02T04:31:50.177Z,0.5
2017-02-02T04:32:56.198Z,0.4
2017-02-02T04:34:02.225Z,0.4
2017-02-02T04:35:08.249Z,0.4
2017-02-02T04:36:14.264Z,0.4
2017-02-02T04:37:19.623Z,0.5
2017-02-02T04:38:25.643Z,0.5
2017-02-02T04:39:31.660Z,0.5
2017-02-02T04:40:35.914Z,0.6
2017-02-02T04:41:41.931Z,0.5
2017-02-02T04:42:47.958Z,0.5
2017-02-02T04:43:53.981Z,0.4
2017-02-02T04:44:59.994Z,0.5
2017-02-02T04:46:06.011Z,0.4
2017-02-02T04:47:12.034Z,0.4
2017-02-02T04:48:18.059Z,0.4
2017-02-02T04:49:22.314Z,0.3
2017-02-02T04:50:28.330Z,0.4
2017-02-02T04:51:34.348Z,0.4
2017-02-02T04:52:40.369Z,0.4
2017-02-02T04:53:45.732Z,0.4
2017-02-02T04:54:51.754Z,0.4
2017-02-02T04:55:57.772Z,0.4
2017-02-02T04:57:03.788Z,0.4
2017-02-02T04:58:09.807Z,0.4
2017-02-02T04:59:14.505Z,0.4
2017-02-02T05:00:20.521Z,0.4
2017-02-02T05:01:26.536Z,0.4
2017-02-02T05:02:32.562Z,0.3
2017-02-02T05:03:38.587Z,0.3
2017-02-02T05:04:44.603Z,0.3
2017-02-02T05:05:50.619Z,0.3
2017-02-02T05:06:56.628Z,0.3
2017-02-02T05:08:02.656Z,0.3
2017-02-02T05:09:08.675Z,0.4
2017-02-02T05:10:14.691Z,0.3
2017-02-02T05:11:20.705Z,0.3
2017-02-02T05:12:26.732Z,0.3
2017-02-02T05:13:32.750Z,0.3
2017-02-02T05:14:38.107Z,0.4
2017-02-02T05:15:44.122Z,0.3
2017-02-02T05:16:50.147Z,0.2
2017-02-02T05:17:56.168Z,0.3
2017-02-02T05:19:02.185Z,0.2
2017-02-02T05:20:08.209Z,0.2
2017-02-02T05:21:14.235Z,0.3
2017-02-02T05:22:19.593Z,0.2
2017-02-02T05:23:25.609Z,0.2
2017-02-02T05:24:30.973Z,0.1
2017-02-02T05:25:36.320Z,0.1
2017-02-02T05:26:42.341Z,0
2017-02-02T05:27:48.360Z,0
2017-02-02T05:28:54.389Z,-0.1
2017-02-02T05:30:00.409Z,-0.1
2017-02-02T05:31:06.420Z,-0.1
2017-02-02T05:32:11.347Z,-0.1
2017-02-02T05:33:17.370Z,-0.1
2017-02-02T05:34:23.395Z,-0.2
2017-02-02T05:35:29.411Z,-0.2
2017-02-02T05:36:35.443Z,-0.2
2017-02-02T05:37:41.461Z,-0.3
2017-02-02T05:38:47.487Z,-0.2
2017-02-02T05:39:52.841Z,-0.3
2017-02-02T05:40:57.548Z,-0.3
2017-02-02T05:42:03.567Z,-0.3
2017-02-02T05:43:09.588Z,-0.3
2017-02-02T05:44:15.604Z,-0.3
2017-02-02T05:45:20.969Z,-0.4
2017-02-02T05:46:26.996Z,-0.4
2017-02-02T05:47:33.017Z,-0.4
2017-02-02T05:48:39.047Z,-0.4
2017-02-02T05:49:45.061Z,-0.4
2017-02-02T05:50:50.418Z,-0.5
2017-02-02T05:51:56.436Z,-0.5
2017-02-02T05:53:02.466Z,-0.5
2017-02-02T05:54:08.495Z,-0.5
2017-02-02T05:55:12.750Z,-0.6
2017-02-02T05:56:18.773Z,-0.6
2017-02-02T05:57:23.689Z,-0.6
2017-02-02T05:58:29.711Z,-0.4
2017-02-02T05:59:35.740Z,-0.5
2017-02-02T06:00:41.088Z,-0.5
2017-02-02T06:01:47.121Z,-0.6
2017-02-02T06:02:53.146Z,-0.6
2017-02-02T06:03:59.168Z,-0.6
2017-02-02T06:05:04.523Z,-0.6
2017-02-02T06:06:10.542Z,-0.6
2017-02-02T06:07:16.585Z,-0.6
2017-02-02T06:08:22.599Z,-0.6
2017-02-02T06:09:28.626Z,-0.7
2017-02-02T06:10:34.644Z,-0.7
2017-02-02T06:11:40.666Z,-0.8
2017-02-02T06:12:46.691Z,-0.7
2017-02-02T06:13:50.952Z,-0.7
2017-02-02T06:14:56.975Z,-0.7
2017-02-02T06:16:01.895Z,-0.6
2017-02-02T06:17:07.915Z,-0.7
2017-02-02T06:18:13.941Z,-0.7
2017-02-02T06:19:19.965Z,-0.7
2017-02-02T06:20:25.993Z,-0.7
2017-02-02T06:21:30.909Z,-0.7
2017-02-02T06:22:36.933Z,-0.8
2017-02-02T06:23:42.955Z,-0.8
2017-02-02T06:24:48.973Z,-0.8
2017-02-02T06:25:54.992Z,-0.8
2017-02-02T06:27:00.361Z,-0.9
2017-02-02T06:28:06.386Z,-0.8
2017-02-02T06:29:12.402Z,-0.8
2017-02-02T06:30:18.428Z,-0.8
2017-02-02T06:31:24.452Z,-0.9
2017-02-02T06:32:30.478Z,-0.9
2017-02-02T06:33:35.836Z,-0.9
2017-02-02T06:34:41.863Z,-0.9
2017-02-02T06:35:47.221Z,-0.8
2017-02-02T06:36:52.594Z,-0.9
2017-02-02T06:37:57.933Z,-0.9
2017-02-02T06:39:03.960Z,-0.9
2017-02-02T06:40:09.327Z,-0.9
2017-02-02T06:41:15.378Z,-0.9
2017-02-02T06:42:21.746Z,-0.9
2017-02-02T06:43:27.752Z,-1
2017-02-02T06:44:33.784Z,-1
2017-02-02T06:45:39.805Z,-1
2017-02-02T06:46:45.828Z,-0.9
2017-02-02T06:47:51.865Z,-0.9
2017-02-02T06:48:57.890Z,-0.9
2017-02-02T06:50:03.925Z,-0.9
2017-02-02T06:51:09.947Z,-1
2017-02-02T06:52:15.973Z,-0.9
2017-02-02T06:53:21.332Z,-1
2017-02-02T06:54:27.349Z,-0.9
2017-02-02T06:55:33.365Z,-0.9
2017-02-02T06:56:39.392Z,-1
2017-02-02T06:57:45.413Z,-1
2017-02-02T06:58:53.883Z,-1
2017-02-02T07:00:06.240Z,-1
2017-02-02T07:01:19.779Z,-0.9
2017-02-02T07:02:25.791Z,-0.9
2017-02-02T07:03:31.884Z,-0.8
2017-02-02T07:04:37.220Z,-0.8
2017-02-02T07:05:43.242Z,-0.7
2017-02-02T07:06:49.261Z,-0.8
2017-02-02T07:07:55.273Z,-0.8
2017-02-02T07:09:01.307Z,-0.7
2017-02-02T07:10:06.318Z,-0.8
2017-02-02T07:11:11.237Z,-0.8
2017-02-02T07:12:17.259Z,-0.9
2017-02-02T07:13:22.190Z,-0.9
2017-02-02T07:14:27.105Z,-1
2017-02-02T07:15:32.032Z,-0.9
2017-02-02T07:16:38.060Z,-0.8
2017-02-02T07:17:44.079Z,-0.8
2017-02-02T07:18:48.997Z,-0.9
2017-02-02T07:19:53.921Z,-0.9
2017-02-02T07:20:59.942Z,-0.9
2017-02-02T07:22:05.962Z,-0.9
2017-02-02T07:23:11.983Z,-0.8
2017-02-02T07:24:18.003Z,-0.8
2017-02-02T07:25:24.034Z,-0.8
2017-02-02T07:26:30.060Z,-0.8
2017-02-02T07:27:36.068Z,-0.8
2017-02-02T07:28:42.105Z,-0.7
2017-02-02T07:29:47.473Z,-0.7
2017-02-02T07:30:53.499Z,-0.7
2017-02-02T07:31:59.518Z,-0.7
2017-02-02T07:33:05.540Z,-0.7
2017-02-02T07:34:11.563Z,-0.7
2017-02-02T07:35:16.486Z,-0.7
2017-02-02T07:36:22.507Z,-0.7
2017-02-02T07:37:28.527Z,-0.7
2017-02-02T07:38:33.450Z,-0.7
2017-02-02T07:39:39.470Z,-0.7
2017-02-02T07:40:44.837Z,-0.7
2017-02-02T07:41:50.863Z,-0.5
2017-02-02T07:42:55.786Z,-0.6
2017-02-02T07:44:01.806Z,-0.5
2017-02-02T07:45:07.834Z,-0.6
2017-02-02T07:46:13.856Z,-0.6
2017-02-02T07:47:19.878Z,-0.5
2017-02-02T07:48:25.906Z,-0.5
2017-02-02T07:49:30.603Z,-0.5
2017-02-02T07:50:36.625Z,-0.5
2017-02-02T07:51:42.653Z,-0.6
2017-02-02T07:52:48.665Z,-0.5
2017-02-02T07:53:54.029Z,-0.5
2017-02-02T07:55:00.063Z,-0.6
2017-02-02T07:56:04.754Z,-0.5
2017-02-02T07:57:10.773Z,-0.7
2017-02-02T07:58:16.142Z,-0.6
2017-02-02T07:59:20.840Z,-0.5
2017-02-02T08:00:25.763Z,-0.4
2017-02-02T08:01:31.782Z,-0.4
2017-02-02T08:02:37.809Z,-0.4
2017-02-02T08:03:43.839Z,-0.4
2017-02-02T08:04:49.859Z,-0.4
2017-02-02T08:05:55.880Z,-0.5
2017-02-02T08:07:01.904Z,-0.3
2017-02-02T08:08:07.933Z,-0.3
2017-02-02T08:09:13.959Z,-0.3
2017-02-02T08:10:19.980Z,-0.3
2017-02-02T08:11:26.004Z,-0.3
2017-02-02T08:12:32.023Z,-0.3
2017-02-02T08:13:38.053Z,-0.2
2017-02-02T08:14:44.065Z,-0.2
2017-02-02T08:15:50.103Z,-0.3
2017-02-02T08:16:56.127Z,-0.4
2017-02-02T08:18:02.149Z,-0.4
2017-02-02T08:19:08.168Z,-0.4
2017-02-02T08:20:14.196Z,-0.4
2017-02-02T08:21:20.216Z,-0.2
2017-02-02T08:22:26.234Z,-0.1
2017-02-02T08:23:31.156Z,-0.2
2017-02-02T08:24:37.181Z,-0.1
2017-02-02T08:25:43.194Z,-0.2
2017-02-02T08:26:49.216Z,-0.1
2017-02-02T08:27:55.231Z,-0.2
2017-02-02T08:29:01.262Z,-0.2
2017-02-02T08:30:06.617Z,-0.1
2017-02-02T08:31:12.632Z,-0.1
2017-02-02T08:32:18.653Z,0
2017-02-02T08:33:24.672Z,0.1
2017-02-02T08:34:30.690Z,0
2017-02-02T08:35:36.709Z,0
2017-02-02T08:36:42.722Z,0
2017-02-02T08:37:48.737Z,-0.1
2017-02-02T08:38:54.763Z,0
2017-02-02T08:40:00.120Z,0
2017-02-02T08:41:05.485Z,-0.1
2017-02-02T08:42:10.840Z,-0.1
2017-02-02T08:43:16.868Z,-0.1
2017-02-02T08:44:22.886Z,0
2017-02-02T08:45:28.905Z,0
2017-02-02T08:46:34.919Z,0.1
2017-02-02T08:47:40.950Z,0.1
2017-02-02T08:48:46.969Z,0
2017-02-02T08:49:52.988Z,0.1
2017-02-02T08:50:59.013Z,0.2
2017-02-02T08:52:05.032Z,0.2
2017-02-02T08:53:11.058Z,0.2
2017-02-02T08:54:17.072Z,0.2
2017-02-02T08:55:23.101Z,0.4
2017-02-02T08:56:29.117Z,0.3
2017-02-02T08:57:35.134Z,0.3
2017-02-02T08:58:41.153Z,0.2
2017-02-02T08:59:46.511Z,0.3
2017-02-02T09:00:52.535Z,0.3
2017-02-02T09:01:58.555Z,0.3
2017-02-02T09:03:03.475Z,0.2
2017-02-02T09:04:08.827Z,0.3
2017-02-02T09:05:13.531Z,0.3
2017-02-02T09:06:18.883Z,0.4
2017-02-02T09:07:24.897Z,0.5
2017-02-02T09:08:30.921Z,0.4
2017-02-02T09:09:36.285Z,0.4
2017-02-02T09:10:40.976Z,0.4
2017-02-02T09:11:46.989Z,0.3
2017-02-02T09:12:51.901Z,0.4
2017-02-02T09:13:57.930Z,0.4
2017-02-02T09:15:03.950Z,0.4
2017-02-02T09:16:09.972Z,0.5
2017-02-02T09:17:15.993Z,0.4
2017-02-02T09:18:22.012Z,0.6
2017-02-02T09:19:26.932Z,0.6
2017-02-02T09:20:32.955Z,0.6
2017-02-02T09:21:38.981Z,0.7
2017-02-02T09:22:44.993Z,0.7
2017-02-02T09:23:50.352Z,0.7
2017-02-02T09:24:56.369Z,0.8
2017-02-02T09:26:02.389Z,0.8
2017-02-02T09:27:08.407Z,0.8
2017-02-02T09:28:13.329Z,0.9
2017-02-02T09:29:19.346Z,0.9
2017-02-02T09:30:25.367Z,0.9
2017-02-02T09:31:31.388Z,1.1
2017-02-02T09:32:37.401Z,1
2017-02-02T09:33:43.419Z,0.9
2017-02-02T09:34:49.445Z,1
2017-02-02T09:35:54.808Z,1
2017-02-02T09:36:59.725Z,1.2
2017-02-02T09:38:05.743Z,1.1
2017-02-02T09:39:11.759Z,1.1
2017-02-02T09:40:17.779Z,1.1
2017-02-02T09:41:23.136Z,1.1
2017-02-02T09:42:29.158Z,1.2
2017-02-02T09:43:34.514Z,1.2
2017-02-02T09:44:39.871Z,1.2
2017-02-02T09:45:45.885Z,1.2
2017-02-02T09:46:51.912Z,1.1
2017-02-02T09:47:57.934Z,1.1
2017-02-02T09:49:03.959Z,1.1
2017-02-02T09:50:09.978Z,1
2017-02-02T09:51:15.326Z,1
2017-02-02T09:52:21.351Z,1
2017-02-02T09:53:27.370Z,1
2017-02-02T09:54:32.283Z,1.1
2017-02-02T09:55:37.213Z,1.1
2017-02-02T09:56:43.237Z,1.1
2017-02-02T09:57:49.262Z,1.2
2017-02-02T09:58:55.273Z,1.1
2017-02-02T10:00:00.634Z,1.3
2017-02-02T10:01:06.653Z,1.3
2017-02-02T10:02:12.675Z,1.3
2017-02-02T10:03:18.032Z,1.4
2017-02-02T10:04:23.389Z,1.4
2017-02-02T10:05:29.407Z,1.3
2017-02-02T10:06:35.428Z,1.3
2017-02-02T10:07:41.450Z,1.3
2017-02-02T10:08:47.472Z,1.3
2017-02-02T10:09:53.489Z,1.3
2017-02-02T10:10:59.508Z,1.2
2017-02-02T10:12:04.863Z,1.2
2017-02-02T10:13:10.880Z,1.2
2017-02-02T10:14:16.894Z,1.2
2017-02-02T10:15:22.921Z,1.4
2017-02-02T10:16:28.941Z,1.3
2017-02-02T10:17:34.961Z,1.3
2017-02-02T10:18:40.991Z,1.4
2017-02-02T10:19:47.012Z,1.3
2017-02-02T10:20:53.031Z,1.3
2017-02-02T10:21:59.048Z,1.3
2017-02-02T10:23:04.405Z,1.3
2017-02-02T10:24:10.422Z,1.2
2017-02-02T10:25:16.438Z,1.4
2017-02-02T10:26:22.457Z,1.4
2017-02-02T10:27:28.485Z,1.5
2017-02-02T10:28:33.836Z,1.6
2017-02-02T10:29:39.855Z,1.7
2017-02-02T10:30:45.870Z,1.7
2017-02-02T10:31:51.892Z,1.8
2017-02-02T10:32:57.908Z,1.8
2017-02-02T10:34:03.928Z,1.7
2017-02-02T10:35:09.945Z,1.7
2017-02-02T10:36:15.967Z,1.7
2017-02-02T10:37:21.994Z,1.6
2017-02-02T10:38:26.912Z,1.5
2017-02-02T10:39:31.833Z,1.6
2017-02-02T10:40:37.855Z,1.5
2017-02-02T10:41:43.871Z,1.6
2017-02-02T10:42:49.889Z,1.6
2017-02-02T10:43:54.804Z,1.6
2017-02-02T10:44:59.726Z,1.7
2017-02-02T10:46:05.749Z,1.8
2017-02-02T10:47:11.771Z,1.8
2017-02-02T10:48:17.795Z,1.9
2017-02-02T10:49:23.820Z,1.9
2017-02-02T10:50:29.837Z,1.9
2017-02-02T10:51:35.853Z,1.9
2017-02-02T10:52:40.772Z,1.8
2017-02-02T10:53:46.793Z,1.8
2017-02-02T10:54:52.806Z,1.8
2017-02-02T10:55:58.824Z,1.8
2017-02-02T10:57:04.842Z,2
2017-02-02T10:58:10.863Z,1.8
2017-02-02T10:59:16.888Z,1.9
2017-02-02T11:00:22.900Z,1.7
2017-02-02T11:01:28.252Z,1.8
2017-02-02T11:02:34.277Z,1.7
2017-02-02T11:03:40.297Z,1.8
2017-02-02T11:04:46.310Z,2
2017-02-02T11:05:52.333Z,2
2017-02-02T11:06:58.355Z,1.9
2017-02-02T11:08:04.378Z,1.9
2017-02-02T11:09:10.394Z,1.9
2017-02-02T11:10:16.415Z,1.9
2017-02-02T11:11:22.431Z,1.8
2017-02-02T11:12:27.349Z,1.7
2017-02-02T11:13:33.368Z,1.8
2017-02-02T11:14:39.388Z,1.7
2017-02-02T11:15:45.410Z,1.7
2017-02-02T11:16:51.431Z,1.7
2017-02-02T11:17:57.452Z,1.7
2017-02-02T11:19:01.704Z,1.8
2017-02-02T11:20:07.721Z,1.7
2017-02-02T11:21:13.740Z,1.8
2017-02-02T11:22:18.653Z,1.7
2017-02-02T11:23:22.920Z,1.7
2017-02-02T11:24:28.278Z,1.7
2017-02-02T11:25:33.635Z,1.7
2017-02-02T11:26:39.645Z,1.7
2017-02-02T11:27:45.675Z,1.7
2017-02-02T11:28:51.691Z,1.7
2017-02-02T11:29:57.045Z,1.7
2017-02-02T11:31:03.057Z,1.8
2017-02-02T11:32:09.078Z,1.9
2017-02-02T11:33:15.099Z,1.9
2017-02-02T11:34:21.115Z,1.9
2017-02-02T11:35:27.139Z,2
2017-02-02T11:36:33.159Z,2.1
2017-02-02T11:37:39.173Z,2
2017-02-02T11:38:45.188Z,1.8
2017-02-02T11:39:50.547Z,1.9
2017-02-02T11:40:55.898Z,1.7
2017-02-02T11:42:01.916Z,1.7
2017-02-02T11:43:07.936Z,1.7
2017-02-02T11:44:13.947Z,1.7
2017-02-02T11:45:18.205Z,1.7
2017-02-02T11:46:24.221Z,1.8
2017-02-02T11:47:30.232Z,1.7
2017-02-02T11:48:36.252Z,1.8
2017-02-02T11:49:42.272Z,1.9
2017-02-02T11:50:48.296Z,2
2017-02-02T11:51:54.316Z,1.8
2017-02-02T11:53:00.328Z,1.8
2017-02-02T11:54:06.343Z,1.7
2017-02-02T11:55:12.371Z,1.7
2017-02-02T11:56:18.385Z,1.8
2017-02-02T11:57:24.407Z,1.9
2017-02-02T11:58:30.430Z,1.9
2017-02-02T11:59:36.453Z,2
2017-02-02T12:00:42.468Z,2
2017-02-02T12:01:48.492Z,2
2017-02-02T12:02:54.512Z,2.1
2017-02-02T12:04:00.522Z,2.2
2017-02-02T12:05:05.435Z,2.3
2017-02-02T12:06:10.821Z,2.3
2017-02-02T12:07:16.819Z,2.3
2017-02-02T12:08:22.841Z,2.4
2017-02-02T12:09:28.851Z,2.5
2017-02-02T12:10:34.873Z,2.5
2017-02-02T12:11:40.895Z,2.4
2017-02-02T12:12:46.910Z,2.4
2017-02-02T12:13:52.932Z,2.4
2017-02-02T12:14:57.857Z,2.4
2017-02-02T12:16:03.211Z,2.5
2017-02-02T12:17:09.233Z,2.4
2017-02-02T12:18:14.587Z,2.4
2017-02-02T12:19:20.610Z,2.5
2017-02-02T12:20:26.633Z,2.5
2017-02-02T12:21:31.990Z,2.5
2017-02-02T12:22:37.340Z,2.5
2017-02-02T12:23:43.362Z,2.6
2017-02-02T12:24:48.718Z,2.5
2017-02-02T12:25:54.734Z,2.5
2017-02-02T12:27:00.758Z,2.5
2017-02-02T12:28:06.780Z,2.5
2017-02-02T12:29:12.804Z,2.6
2017-02-02T12:30:18.825Z,2.6
2017-02-02T12:31:24.181Z,2.6
2017-02-02T12:32:30.208Z,2.6
2017-02-02T12:33:36.222Z,2.5
2017-02-02T12:34:42.241Z,2.6
2017-02-02T12:35:47.602Z,2.5
2017-02-02T12:36:52.957Z,2.5
2017-02-02T12:37:58.978Z,2.4
2017-02-02T12:39:04.992Z,2.5
2017-02-02T12:40:11.004Z,2.7
2017-02-02T12:41:17.019Z,2.8
2017-02-02T12:42:23.042Z,2.8
2017-02-02T12:43:27.733Z,2.8
2017-02-02T12:44:33.092Z,2.9
2017-02-02T12:45:39.119Z,3
2017-02-02T12:46:47.106Z,3
2017-02-02T12:47:50.883Z,3.1
2017-02-02T12:48:56.897Z,3
2017-02-02T12:50:02.957Z,3
2017-02-02T12:51:08.962Z,3.1
2017-02-02T12:52:14.980Z,3
2017-02-02T12:53:20.995Z,3
2017-02-02T12:54:27.018Z,3
2017-02-02T12:55:33.035Z,3
2017-02-02T12:56:39.066Z,3.1
2017-02-02T12:57:44.420Z,3
2017-02-02T12:58:50.438Z,2.9
2017-02-02T12:59:55.794Z,3
2017-02-02T13:01:00.710Z,2.9
2017-02-02T13:02:06.063Z,2.9
2017-02-02T13:03:12.078Z,2.8
2017-02-02T13:04:18.093Z,2.8
2017-02-02T13:05:24.115Z,2.6
2017-02-02T13:06:29.033Z,2.6
2017-02-02T13:07:35.055Z,2.6
2017-02-02T13:08:41.071Z,2.5
2017-02-02T13:09:47.084Z,2.3
2017-02-02T13:10:53.103Z,2.3
2017-02-02T13:11:58.465Z,2.3
2017-02-02T13:13:04.482Z,2.1
2017-02-02T13:14:10.504Z,2.2
2017-02-02T13:15:16.522Z,2.2
2017-02-02T13:16:22.552Z,2.1
2017-02-02T13:17:27.900Z,2.1
2017-02-02T13:18:33.930Z,2.2
2017-02-02T13:19:39.941Z,2.2
2017-02-02T13:20:45.977Z,2.2
2017-02-02T13:21:51.994Z,2.1
2017-02-02T13:22:58.030Z,2.1
2017-02-02T13:24:04.063Z,2.1
2017-02-02T13:25:10.084Z,2.2
2017-02-02T13:26:16.113Z,2.2
2017-02-02T13:27:22.193Z,2.2
2017-02-02T13:28:28.216Z,2.2
2017-02-02T13:29:34.240Z,2.2
2017-02-02T13:30:40.263Z,2.2
2017-02-02T13:31:46.277Z,2.2
2017-02-02T13:32:52.295Z,2.2
2017-02-02T13:33:58.320Z,2.4
2017-02-02T13:35:04.340Z,2.3
2017-02-02T13:36:10.373Z,2.2
2017-02-02T13:37:16.401Z,2.2
2017-02-02T13:38:22.421Z,2.3
2017-02-02T13:39:27.348Z,2.3
2017-02-02T13:40:33.356Z,2.2
2017-02-02T13:41:39.375Z,2.3
2017-02-02T13:42:45.393Z,2.4
2017-02-02T13:43:51.416Z,2.4
2017-02-02T13:44:57.438Z,2.3
2017-02-02T13:46:03.455Z,2.3
2017-02-02T13:47:09.478Z,2.3
2017-02-02T13:48:14.397Z,2.2
2017-02-02T13:49:20.423Z,2.1
2017-02-02T13:50:26.437Z,2.1
2017-02-02T13:51:32.449Z,2.2
2017-02-02T13:52:37.372Z,2.1
2017-02-02T13:53:43.390Z,2.1
2017-02-02T13:54:49.413Z,2.2
2017-02-02T13:55:55.435Z,2.2
2017-02-02T13:57:00.357Z,2.1
2017-02-02T13:58:06.376Z,2.2
2017-02-02T13:59:12.401Z,2.2
2017-02-02T14:00:17.094Z,2.2
2017-02-02T14:01:23.118Z,2.2
2017-02-02T14:02:29.144Z,2.2
2017-02-02T14:03:35.463Z,2.2
2017-02-02T14:04:41.199Z,2.1
2017-02-02T14:05:46.119Z,2.1
2017-02-02T14:06:52.141Z,2.1
2017-02-02T14:07:57.495Z,2.1
2017-02-02T14:09:03.512Z,2.2
2017-02-02T14:10:09.525Z,2.2
2017-02-02T14:11:15.549Z,2.2
2017-02-02T14:12:21.585Z,2.1
2017-02-02T14:13:27.604Z,2.2
2017-02-02T14:14:33.621Z,2.2
2017-02-02T14:15:39.636Z,2.2
2017-02-02T14:16:45.662Z,2.2
2017-02-02T14:17:51.684Z,2.3
2017-02-02T14:18:57.701Z,2.1
2017-02-02T14:20:03.718Z,2.1
2017-02-02T14:21:09.737Z,2.1
2017-02-02T14:22:15.760Z,2.2
2017-02-02T14:23:21.779Z,2.2
2017-02-02T14:24:27.796Z,2.2
2017-02-02T14:25:33.960Z,2.2
2017-02-02T14:26:39.984Z,2.1
2017-02-02T14:27:46.000Z,2.1
2017-02-02T14:28:52.019Z,2.2
2017-02-02T14:29:58.035Z,2.2
2017-02-02T14:31:04.068Z,2.3
2017-02-02T14:32:10.093Z,2.2
2017-02-02T14:33:16.117Z,2.3
2017-02-02T14:34:22.133Z,2.2
2017-02-02T14:35:28.160Z,2.2
2017-02-02T14:36:33.087Z,2.2
2017-02-02T14:37:39.110Z,2.2
2017-02-02T14:38:45.126Z,2.3
2017-02-02T14:39:50.483Z,2.2
2017-02-02T14:40:56.493Z,2.3
2017-02-02T14:42:01.413Z,2.4
2017-02-02T14:43:07.437Z,2.4
2017-02-02T14:44:13.468Z,2.3
2017-02-02T14:45:19.479Z,2.2
2017-02-02T14:46:25.675Z,2.3
2017-02-02T14:47:31.695Z,2.3
2017-02-02T14:48:37.055Z,2.3
2017-02-02T14:49:43.065Z,2.3
2017-02-02T14:50:49.083Z,2.4
2017-02-02T14:51:54.444Z,2.4
2017-02-02T14:53:00.464Z,2.4
2017-02-02T14:54:06.481Z,2.4
2017-02-02T14:55:12.501Z,2.5
2017-02-02T14:56:17.987Z,2.4
2017-02-02T14:57:24.004Z,2.5
2017-02-02T14:58:30.018Z,2.5
2017-02-02T14:59:36.057Z,2.5
2017-02-02T15:00:41.439Z,2.5
2017-02-02T15:01:46.808Z,2.4
2017-02-02T15:02:52.158Z,2.5
2017-02-02T15:03:56.421Z,2.5